createdAt,value
2022-10-02T00:02:38.745Z,1.45
2022-10-02T00:07:53.004Z,1.40
2022-10-02T00:12:48.695Z,1.55
2022-10-02T00:17:45.915Z,1.50
2022-10-02T00:22:59.059Z,1.55
2022-10-02T00:28:04.478Z,1.42
2022-10-02T00:33:19.794Z,1.50
2022-10-02T00:38:35.193Z,1.35
2022-10-02T00:43:35.963Z,1.30
2022-10-02T00:48:44.156Z,1.40
2022-10-02T00:53:54.106Z,1.50
2022-10-02T00:59:28.249Z,1.15
2022-10-02T01:04:29.301Z,1.30
2022-10-02T01:09:23.382Z,1.08
2022-10-02T01:14:17.069Z,1.45
2022-10-02T01:19:27.243Z,1.30
2022-10-02T01:24:25.302Z,1.27
2022-10-02T01:29:18.869Z,1.27
2022-10-02T01:34:12.320Z,1.50
2022-10-02T01:39:06.661Z,1.73
2022-10-02T01:44:02.434Z,1.20
2022-10-02T01:49:04.414Z,1.40
2022-10-02T01:54:16.857Z,0.90
2022-10-02T01:59:38.743Z,1.17
2022-10-02T02:04:57.411Z,1.10
2022-10-02T02:10:01.548Z,1.23
2022-10-02T02:15:05.620Z,1.20
2022-10-02T02:20:13.959Z,1.40
2022-10-02T02:25:27.252Z,1.20
2022-10-02T02:30:21.820Z,1.30
2022-10-02T02:35:32.309Z,1.20
2022-10-02T02:40:29.119Z,1.20
2022-10-02T02:45:24.624Z,1.00
2022-10-02T02:50:23.009Z,1.23
2022-10-02T02:55:34.491Z,1.10
2022-10-02T03:00:28.185Z,1.00
2022-10-02T03:05:22.516Z,1.02
2022-10-02T03:10:19.764Z,1.30
2022-10-02T03:15:31.483Z,1.00
2022-10-02T03:20:43.801Z,1.00
2022-10-02T03:26:03.546Z,1.02
2022-10-02T03:30:57.976Z,1.45
2022-10-02T03:35:51.756Z,1.10
2022-10-02T03:40:46.198Z,1.23
2022-10-02T03:45:58.523Z,1.13
2022-10-02T03:50:51.800Z,1.07
2022-10-02T03:55:49.196Z,1.15
2022-10-02T04:00:57.080Z,1.10
2022-10-02T04:06:01.061Z,1.25
2022-10-02T04:11:03.637Z,1.23
2022-10-02T04:16:04.716Z,1.35
2022-10-02T04:21:26.123Z,0.82
2022-10-02T04:26:27.093Z,0.80
2022-10-02T04:31:21.909Z,1.10
2022-10-02T04:36:39.110Z,1.00
2022-10-02T04:41:46.755Z,1.00
2022-10-02T04:47:01.240Z,0.90
2022-10-02T04:52:13.337Z,1.02
2022-10-02T04:57:29.322Z,1.48
2022-10-02T05:02:36.953Z,0.80
2022-10-02T05:07:33.845Z,0.98
2022-10-02T05:12:54.419Z,1.15
2022-10-02T05:18:25.077Z,1.20
2022-10-02T05:23:26.373Z,1.10
2022-10-02T05:28:31.527Z,1.17
2022-10-02T05:33:34.474Z,0.98
2022-10-02T05:38:36.851Z,1.15
2022-10-02T05:43:48.661Z,1.10
2022-10-02T05:48:42.856Z,1.42
2022-10-02T05:53:42.076Z,1.15
2022-10-02T05:58:42.221Z,1.15
2022-10-02T06:03:49.946Z,0.93
2022-10-02T06:09:06.749Z,0.90
2022-10-02T06:14:16.790Z,0.98
2022-10-02T06:19:16.865Z,1.10
2022-10-02T06:24:19.401Z,1.30
2022-10-02T06:29:27.238Z,1.13
2022-10-02T06:34:21.310Z,1.27
2022-10-02T06:39:36.981Z,0.93
2022-10-02T06:44:38.929Z,1.10
2022-10-02T06:49:58.679Z,1.08
2022-10-02T06:54:51.900Z,1.30
2022-10-02T06:59:58.420Z,1.02
2022-10-02T07:05:12.018Z,1.20
2022-10-02T07:10:23.592Z,1.45
2022-10-02T07:15:27.061Z,0.88
2022-10-02T07:21:12.212Z,1.25
2022-10-02T07:26:28.441Z,1.25
2022-10-02T07:31:46.913Z,1.25
2022-10-02T07:36:47.012Z,1.27
2022-10-02T07:41:50.967Z,1.40
2022-10-02T07:47:16.503Z,1.60
2022-10-02T07:52:25.018Z,1.40
2022-10-02T07:57:30.969Z,1.33
2022-10-02T08:03:05.812Z,1.80
2022-10-02T08:08:21.375Z,2.55
2022-10-02T08:13:42.105Z,1.77
2022-10-02T08:18:56.819Z,2.08
2022-10-02T08:24:00.478Z,1.90
2022-10-02T08:29:09.563Z,2.00
2022-10-02T08:34:32.939Z,2.00
2022-10-02T08:44:45.658Z,2.05
2022-10-02T08:50:32.513Z,1.92
2022-10-02T08:55:34.152Z,1.92
2022-10-02T09:00:44.714Z,1.67
2022-10-02T09:06:08.330Z,1.88
2022-10-02T09:11:28.530Z,3.60
2022-10-02T09:16:41.206Z,2.33
2022-10-02T09:27:13.135Z,2.53
2022-10-02T09:32:36.598Z,2.08
2022-10-02T09:37:51.773Z,1.30
2022-10-02T09:43:10.945Z,1.35
2022-10-02T09:48:16.313Z,1.60
2022-10-02T09:54:21.621Z,1.50
2022-10-02T10:04:47.605Z,1.30
2022-10-02T10:10:05.662Z,1.33
2022-10-02T10:15:18.015Z,1.30
2022-10-02T10:20:37.525Z,1.33
2022-10-02T10:25:42.805Z,1.40
2022-10-02T10:31:10.905Z,1.20
2022-10-02T10:36:53.472Z,1.40
2022-10-02T10:42:02.229Z,1.33
2022-10-02T10:47:16.854Z,1.23
2022-10-02T10:52:39.863Z,1.20
2022-10-02T10:57:35.733Z,1.92
2022-10-02T11:02:36.564Z,2.25
2022-10-02T11:07:40.179Z,1.88
2022-10-02T11:12:42.320Z,1.52
2022-10-02T11:17:50.489Z,1.65
2022-10-02T11:23:08.134Z,1.38
2022-10-02T11:28:29.551Z,1.40
2022-10-02T11:33:31.564Z,1.35
2022-10-02T11:38:43.093Z,2.63
2022-10-02T11:43:48.667Z,1.88
2022-10-02T11:49:10.164Z,1.60
2022-10-02T11:54:45.632Z,2.53
2022-10-02T11:59:41.369Z,2.03
2022-10-02T12:04:41.304Z,1.25
2022-10-02T12:09:33.753Z,1.10
2022-10-02T12:14:37.783Z,2.10
2022-10-02T12:19:40.128Z,1.25
2022-10-02T12:25:13.850Z,1.30
2022-10-02T12:30:19.869Z,1.73
2022-10-02T12:35:32.549Z,1.73
2022-10-02T12:40:35.768Z,1.35
2022-10-02T12:45:45.955Z,1.23
2022-10-02T12:50:48.661Z,1.40
2022-10-02T12:56:05.144Z,1.50
2022-10-02T13:01:19.386Z,1.40
2022-10-02T13:06:33.274Z,1.30
2022-10-02T13:11:53.668Z,1.85
2022-10-02T13:17:10.334Z,1.10
2022-10-02T13:22:14.998Z,1.30
2022-10-02T13:27:40.319Z,1.23
2022-10-02T13:33:02.982Z,1.00
2022-10-02T13:38:20.664Z,0.98
2022-10-02T13:43:42.787Z,1.10
2022-10-02T13:48:57.361Z,0.88
2022-10-02T13:54:09.144Z,1.45
2022-10-02T13:59:49.525Z,1.17
2022-10-02T14:05:20.990Z,1.38
2022-10-02T14:10:54.969Z,1.05
2022-10-02T14:15:53.815Z,1.35
2022-10-02T14:21:19.066Z,1.00
2022-10-02T14:26:57.783Z,1.13
2022-10-02T14:32:10.238Z,1.50
2022-10-02T14:37:21.256Z,1.00
2022-10-02T14:42:39.062Z,1.08
2022-10-02T14:47:55.311Z,1.10
2022-10-02T14:52:58.463Z,1.30
2022-10-02T14:57:54.904Z,1.10
2022-10-02T15:03:11.793Z,1.08
2022-10-02T15:08:18.735Z,2.03
2022-10-02T15:13:31.956Z,1.10
2022-10-02T15:18:38.668Z,1.38
2022-10-02T15:23:35.349Z,1.00
2022-10-02T15:28:37.693Z,1.08
2022-10-02T15:39:13.722Z,1.02
2022-10-02T15:44:30.149Z,0.90
2022-10-02T15:49:47.649Z,1.15
2022-10-02T15:54:49.749Z,1.20
2022-10-02T16:00:00.155Z,1.00
2022-10-02T16:05:14.124Z,0.90
2022-10-02T16:11:02.099Z,1.02
2022-10-02T16:16:06.341Z,0.95
2022-10-02T16:21:18.717Z,0.95
2022-10-02T16:26:28.284Z,0.93
2022-10-02T16:31:24.587Z,1.08
2022-10-02T16:36:32.857Z,0.90
2022-10-02T16:41:32.156Z,0.90
2022-10-02T16:46:44.889Z,0.93
2022-10-02T16:56:59.924Z,0.95
2022-10-02T17:02:18.196Z,0.85
2022-10-02T17:07:27.092Z,0.75
2022-10-02T17:12:27.669Z,1.00
2022-10-02T17:17:35.559Z,0.80
2022-10-02T17:22:41.955Z,0.98
2022-10-02T17:27:35.620Z,0.80
2022-10-02T17:32:36.565Z,0.57
2022-10-02T17:37:32.951Z,0.90
2022-10-02T17:42:41.703Z,0.80
2022-10-02T17:47:50.811Z,0.70
2022-10-02T17:53:24.871Z,0.75
2022-10-02T17:58:31.413Z,0.80
2022-10-02T18:03:52.505Z,0.75
2022-10-02T18:09:24.817Z,1.20
2022-10-02T18:14:26.341Z,0.70
2022-10-02T18:19:24.757Z,0.77
2022-10-02T18:24:53.516Z,0.73
2022-10-02T18:30:25.722Z,1.02
2022-10-02T18:35:48.477Z,0.60
2022-10-02T18:41:06.176Z,1.00
2022-10-02T18:46:11.330Z,0.70
2022-10-02T18:51:14.791Z,1.20
2022-10-02T18:56:13.020Z,0.82
2022-10-02T19:01:13.785Z,1.13
2022-10-02T19:06:32.120Z,1.00
2022-10-02T19:11:30.550Z,1.05
2022-10-02T19:16:26.176Z,1.67
2022-10-02T19:21:22.616Z,1.92
2022-10-02T19:26:33.239Z,1.65
2022-10-02T19:31:46.907Z,1.77
2022-10-02T19:36:45.267Z,2.75
2022-10-02T19:41:44.113Z,3.28
2022-10-02T19:46:43.892Z,3.40
2022-10-02T19:51:45.864Z,5.57
2022-10-02T19:56:46.690Z,7.40
2022-10-02T20:01:46.222Z,7.18
2022-10-02T20:06:40.704Z,6.70
2022-10-02T20:11:53.680Z,5.60
2022-10-02T20:17:06.689Z,6.20
2022-10-02T20:22:05.707Z,5.10
2022-10-02T20:27:14.628Z,4.90
2022-10-02T20:32:22.069Z,4.65
2022-10-02T20:37:21.132Z,5.15
2022-10-02T20:42:36.598Z,4.93
2022-10-02T20:47:51.236Z,4.90
2022-10-02T20:53:25.909Z,3.85
2022-10-02T20:58:27.481Z,3.97
2022-10-02T21:03:28.180Z,3.85
2022-10-02T21:08:44.959Z,4.40
2022-10-02T21:13:42.828Z,4.10
2022-10-02T21:19:07.133Z,3.47
2022-10-02T21:24:25.926Z,3.67
2022-10-02T21:29:52.028Z,3.88
2022-10-02T21:35:35.046Z,3.03
2022-10-02T21:40:46.684Z,2.92
2022-10-02T21:46:14.572Z,2.97
2022-10-02T21:51:57.751Z,2.80
2022-10-02T21:57:04.024Z,3.50
2022-10-02T22:02:28.067Z,3.33
2022-10-02T22:07:40.199Z,3.13
2022-10-02T22:12:33.298Z,3.13
2022-10-02T22:17:38.878Z,3.00
2022-10-02T22:23:00.893Z,2.83
2022-10-02T22:28:18.215Z,2.20
2022-10-02T22:33:26.388Z,2.70
2022-10-02T22:38:34.343Z,2.63
2022-10-02T22:44:08.988Z,2.60
2022-10-02T22:49:33.859Z,2.00
2022-10-02T22:54:54.037Z,2.20
2022-10-02T22:59:58.297Z,2.08
2022-10-02T23:05:06.166Z,2.13
2022-10-02T23:10:38.420Z,2.00
2022-10-02T23:16:01.813Z,3.30
2022-10-02T23:21:03.244Z,2.80
2022-10-02T23:26:19.187Z,2.35
2022-10-02T23:31:22.341Z,2.70
2022-10-02T23:36:43.730Z,2.25
2022-10-02T23:41:49.652Z,2.72
2022-10-02T23:46:51.764Z,1.77
2022-10-02T23:52:11.458Z,2.00
2022-10-02T23:57:37.269Z,1.88
